createdAt,value
2023-03-02T00:02:12.679Z,113.20
2023-03-02T00:04:49.095Z,86.50
2023-03-02T00:07:23.236Z,92.90
2023-03-02T00:09:54.172Z,103.20
2023-03-02T00:12:22.669Z,102.10
2023-03-02T00:14:52.405Z,84.50
2023-03-02T00:17:29.194Z,69.60
2023-03-02T00:20:10.592Z,78.60
2023-03-02T00:22:42.906Z,90.90
2023-03-02T00:25:14.204Z,100.60
2023-03-02T00:27:43.205Z,104.50
2023-03-02T00:30:14.822Z,112.90
2023-03-02T00:32:44.855Z,105.60
2023-03-02T00:35:14.434Z,105.10
2023-03-02T00:37:43.540Z,112.70
2023-03-02T00:40:13.331Z,110.60
2023-03-02T00:42:42.606Z,128.10
2023-03-02T00:45:12.955Z,118.50
2023-03-02T00:47:42.576Z,123.50
2023-03-02T00:50:12.294Z,106.20
2023-03-02T00:52:41.322Z,91.30
2023-03-02T00:55:10.853Z,85.90
2023-03-02T00:57:41.298Z,91.00
2023-03-02T04:00:49.160Z,34.70
2023-03-02T04:03:20.403Z,31.80
2023-03-02T04:05:50.613Z,32.50
2023-03-02T04:08:20.838Z,25.30
2023-03-02T04:10:50.264Z,32.10
2023-03-02T04:13:19.720Z,53.00
2023-03-02T04:15:49.108Z,40.50
2023-03-02T04:18:18.725Z,36.90
2023-03-02T04:20:48.515Z,33.60
2023-03-02T04:23:17.880Z,38.00
2023-03-02T04:25:48.772Z,37.10
2023-03-02T04:28:22.319Z,30.20
2023-03-02T04:30:51.846Z,28.40
2023-03-02T04:33:20.202Z,27.80
2023-03-02T04:35:51.383Z,29.20
2023-03-02T04:38:22.214Z,26.10
2023-03-02T04:40:51.982Z,25.90
2023-03-02T04:43:21.536Z,34.00
2023-03-02T04:45:51.221Z,34.50
2023-03-02T04:48:20.755Z,24.50
2023-03-02T04:50:50.266Z,21.90
2023-03-02T04:53:19.689Z,19.70
2023-03-02T04:55:48.805Z,19.70
2023-03-02T04:58:18.266Z,14.20
2023-03-02T05:00:47.380Z,15.00
2023-03-02T05:03:16.065Z,19.50
2023-03-02T05:05:45.276Z,19.40
2023-03-02T05:08:15.319Z,14.10
2023-03-02T05:10:44.617Z,16.00
2023-03-02T05:13:13.979Z,19.60
2023-03-02T05:15:43.888Z,13.50
2023-03-02T05:18:13.837Z,17.50
2023-03-02T05:20:42.103Z,21.60
2023-03-02T05:23:14.380Z,22.40
2023-03-02T05:25:43.636Z,24.90
2023-03-02T05:28:12.760Z,35.60
2023-03-02T05:30:42.647Z,26.00
2023-03-02T05:33:12.098Z,37.40
2023-03-02T05:35:41.300Z,37.90
2023-03-02T05:38:10.275Z,48.50
2023-03-02T05:40:41.278Z,47.10
2023-03-02T05:43:15.535Z,38.70
2023-03-02T05:45:45.149Z,38.40
2023-03-02T05:48:14.949Z,37.80
2023-03-02T05:50:43.564Z,32.50
2023-03-02T05:53:13.035Z,33.60
2023-03-02T05:55:42.298Z,31.00
2023-03-02T05:58:16.076Z,33.10
2023-03-02T06:00:46.761Z,20.30
2023-03-02T06:03:17.372Z,24.20
2023-03-02T06:05:51.361Z,27.90
2023-03-02T06:08:22.731Z,27.30
2023-03-02T06:10:56.895Z,35.20
2023-03-02T06:13:25.957Z,39.90
2023-03-02T06:15:56.139Z,42.50
2023-03-02T06:18:24.473Z,42.10
2023-03-02T06:20:53.836Z,40.20
2023-03-02T06:23:23.590Z,43.80
2023-03-02T06:25:52.765Z,39.00
2023-03-02T06:28:22.553Z,38.90
2023-03-02T06:30:52.759Z,41.20
2023-03-02T06:33:22.692Z,47.70
2023-03-02T06:35:52.494Z,47.40
2023-03-02T06:38:22.308Z,47.60
2023-03-02T06:40:51.799Z,50.60
2023-03-02T06:43:20.178Z,50.00
2023-03-02T06:45:51.638Z,55.90
2023-03-02T06:48:20.204Z,51.30
2023-03-02T06:50:49.346Z,51.30
2023-03-02T06:53:20.621Z,48.50
2023-03-02T06:55:50.836Z,46.60
2023-03-02T06:58:20.185Z,50.30
2023-03-02T07:00:49.572Z,52.00
2023-03-02T07:03:19.369Z,40.10
2023-03-02T07:05:49.272Z,43.20
2023-03-02T07:08:18.468Z,29.90
2023-03-02T07:10:47.898Z,34.80
2023-03-02T07:13:17.272Z,37.30
2023-03-02T07:15:46.964Z,37.90
2023-03-02T07:18:16.649Z,26.30
2023-03-02T07:20:44.989Z,24.30
2023-03-02T07:23:14.001Z,19.70
2023-03-02T07:25:43.434Z,17.20
2023-03-02T07:28:12.047Z,17.40
2023-03-02T07:30:41.078Z,15.40
2023-03-02T07:33:09.576Z,11.20
2023-03-02T07:35:38.879Z,9.70
2023-03-02T07:38:07.970Z,10.30
2023-03-02T07:40:40.309Z,11.30
2023-03-02T07:43:09.893Z,11.70
2023-03-02T07:45:39.715Z,8.60
2023-03-02T07:48:08.984Z,9.00
2023-03-02T07:50:38.119Z,4.80
2023-03-02T07:53:07.510Z,6.20
2023-03-02T07:55:40.770Z,7.00
2023-03-02T07:58:09.913Z,2.90
2023-03-02T08:00:42.604Z,5.90
2023-03-02T08:03:14.631Z,30.80
2023-03-02T08:05:43.831Z,8.80
2023-03-02T08:08:12.971Z,52.80
2023-03-02T08:10:42.583Z,12.20
2023-03-02T08:13:11.504Z,226.50
2023-03-02T08:15:39.814Z,205.30
2023-03-02T08:18:09.016Z,41.70
2023-03-02T08:20:38.810Z,48.90
2023-03-02T08:23:07.479Z,15.00
2023-03-02T08:25:39.286Z,46.40
2023-03-02T08:28:08.449Z,43.10
2023-03-02T08:30:38.117Z,38.20
2023-03-02T08:33:07.282Z,65.50
2023-03-02T08:35:36.781Z,38.70
2023-03-02T08:38:05.973Z,31.90
2023-03-02T08:40:35.518Z,15.40
2023-03-02T08:43:06.711Z,109.00
2023-03-02T08:45:37.754Z,54.20
2023-03-02T08:48:07.049Z,11.40
2023-03-02T08:50:36.398Z,16.60
2023-03-02T08:53:05.643Z,77.00
2023-03-02T08:55:38.202Z,10.40
2023-03-02T08:58:07.029Z,18.40
2023-03-02T09:00:36.414Z,48.30
2023-03-02T09:03:05.646Z,44.50
2023-03-02T09:05:38.059Z,22.20
2023-03-02T09:08:07.846Z,19.40
2023-03-02T09:10:37.411Z,77.80
2023-03-02T09:13:08.623Z,96.50
2023-03-02T09:15:38.223Z,62.40
2023-03-02T09:18:07.457Z,20.70
2023-03-02T09:20:36.715Z,51.20
2023-03-02T09:23:05.881Z,14.00
2023-03-02T09:25:34.997Z,9.70
2023-03-02T09:28:04.433Z,4.40
2023-03-02T09:30:33.661Z,12.60
2023-03-02T09:33:02.815Z,21.80
2023-03-02T09:35:31.902Z,11.90
2023-03-02T09:38:01.415Z,10.90
2023-03-02T09:40:32.755Z,15.90
2023-03-02T09:43:13.319Z,15.50
2023-03-02T09:46:10.944Z,8.00
2023-03-02T09:48:58.869Z,5.60
2023-03-02T09:51:59.241Z,21.20
2023-03-02T09:54:31.463Z,11.40
2023-03-02T09:57:02.510Z,12.00
2023-03-02T09:59:44.203Z,4.90
2023-03-02T10:02:19.583Z,5.80
2023-03-02T10:04:53.473Z,7.40
2023-03-02T10:10:23.290Z,10.00
2023-03-02T10:13:00.240Z,9.40
2023-03-02T10:15:53.898Z,10.60
2023-03-02T10:18:34.264Z,9.90
2023-03-02T10:21:23.129Z,11.40
2023-03-02T10:24:37.779Z,8.40
2023-03-02T10:27:27.813Z,9.60
2023-03-02T10:30:03.658Z,5.90
2023-03-02T10:32:53.251Z,8.00
2023-03-02T10:35:25.880Z,10.80
2023-03-02T10:38:00.722Z,4.10
2023-03-02T10:40:44.510Z,5.70
2023-03-02T10:43:34.473Z,7.10
2023-03-02T10:46:08.944Z,10.60
2023-03-02T10:48:50.602Z,7.60
2023-03-02T10:51:29.306Z,4.80
2023-03-02T10:54:07.311Z,4.00
2023-03-02T10:56:36.405Z,7.10
2023-03-02T10:59:30.760Z,13.10
2023-03-02T11:04:29.157Z,8.70
2023-03-02T11:07:09.419Z,17.60
2023-03-02T11:09:38.782Z,9.90
2023-03-02T11:12:15.801Z,19.20
2023-03-02T11:14:44.238Z,8.70
2023-03-02T11:17:40.520Z,9.40
2023-03-02T11:20:22.536Z,4.40
2023-03-02T11:23:00.118Z,7.50
2023-03-02T11:25:35.343Z,8.80
2023-03-02T11:28:28.054Z,5.10
2023-03-02T11:30:59.914Z,24.20
2023-03-02T11:33:44.007Z,10.40
2023-03-02T11:36:24.027Z,5.00
2023-03-02T11:38:56.133Z,8.10
2023-03-02T11:41:34.343Z,7.20
2023-03-02T11:44:17.298Z,7.10
2023-03-02T11:46:50.489Z,4.20
2023-03-02T11:49:28.198Z,52.40
2023-03-02T11:52:00.870Z,31.80
2023-03-02T11:54:44.904Z,25.60
2023-03-02T12:00:39.300Z,8.90
2023-03-02T12:03:19.192Z,7.40
2023-03-02T12:06:02.470Z,12.70
2023-03-02T12:08:41.309Z,13.70
2023-03-02T12:11:19.153Z,14.60
2023-03-02T12:13:54.139Z,11.60
2023-03-02T12:16:36.230Z,14.80
2023-03-02T12:19:29.113Z,9.80
2023-03-02T12:22:02.435Z,10.30
2023-03-02T12:24:34.828Z,5.20
2023-03-02T12:27:15.561Z,9.80
2023-03-02T12:29:46.756Z,9.20
2023-03-02T12:32:30.381Z,10.30
2023-03-02T12:35:08.330Z,8.30
2023-03-02T12:37:57.493Z,9.90
2023-03-02T12:41:01.071Z,16.70
2023-03-02T12:43:33.108Z,3.40
2023-03-02T12:46:28.556Z,113.60
2023-03-02T12:48:59.460Z,28.20
2023-03-02T12:51:33.161Z,6.80
2023-03-02T12:54:27.372Z,10.80
2023-03-02T12:57:14.949Z,5.40
2023-03-02T12:59:51.623Z,15.20
2023-03-02T13:02:24.158Z,40.80
2023-03-02T13:04:56.566Z,13.10
2023-03-02T13:07:36.620Z,30.80
2023-03-02T13:10:27.068Z,11.80
2023-03-02T13:12:57.894Z,30.70
2023-03-02T13:15:29.311Z,9.80
2023-03-02T13:18:01.694Z,24.10
2023-03-02T13:20:34.352Z,15.20
2023-03-02T13:23:04.649Z,14.20
2023-03-02T13:25:34.201Z,46.80
2023-03-02T13:28:08.447Z,8.30
2023-03-02T13:30:46.179Z,8.10
2023-03-02T13:33:26.475Z,7.30
2023-03-02T13:35:56.670Z,12.50
2023-03-02T13:38:30.938Z,10.40
2023-03-02T13:41:02.541Z,8.10
2023-03-02T13:43:40.332Z,7.80
2023-03-02T13:46:11.939Z,21.50
2023-03-02T13:48:40.855Z,9.00
2023-03-02T13:51:18.520Z,13.30
2023-03-02T13:54:15.285Z,21.30
2023-03-02T13:56:45.377Z,8.70
2023-03-02T13:59:16.783Z,10.70
2023-03-02T14:01:46.335Z,8.10
2023-03-02T14:04:18.316Z,25.20
2023-03-02T14:06:48.025Z,6.20
2023-03-02T14:09:17.758Z,9.80
2023-03-02T14:11:50.996Z,7.10
2023-03-02T14:14:25.555Z,8.80
2023-03-02T14:16:54.364Z,12.90
2023-03-02T14:19:23.201Z,10.10
2023-03-02T14:21:51.728Z,8.60
2023-03-02T14:24:21.058Z,9.90
2023-03-02T14:26:51.044Z,5.50
2023-03-02T14:29:26.757Z,5.90
2023-03-02T14:31:58.281Z,8.00
2023-03-02T14:34:27.126Z,12.50
2023-03-02T14:37:00.205Z,8.40
2023-03-02T14:39:35.800Z,10.30
2023-03-02T14:42:06.597Z,9.80
2023-03-02T14:44:35.445Z,6.50
2023-03-02T14:47:04.560Z,10.60
2023-03-02T14:49:34.349Z,9.60
2023-03-02T14:52:03.980Z,8.90
2023-03-02T14:54:50.006Z,10.60
2023-03-02T14:57:27.163Z,17.20
2023-03-02T15:00:00.408Z,14.70
2023-03-02T15:02:29.981Z,9.70
2023-03-02T15:04:59.754Z,13.30
2023-03-02T15:07:29.310Z,77.20
2023-03-02T15:10:00.001Z,25.60
2023-03-02T15:12:29.370Z,14.70
2023-03-02T15:14:58.821Z,16.80
2023-03-02T15:17:28.080Z,41.60
2023-03-02T15:19:57.309Z,32.20
2023-03-02T15:22:26.632Z,139.20
2023-03-02T15:24:56.499Z,37.50
2023-03-02T15:27:25.613Z,22.40
2023-03-02T15:29:56.414Z,13.70
2023-03-02T15:32:26.856Z,14.00
2023-03-02T15:34:56.320Z,12.10
2023-03-02T15:37:25.442Z,17.50
2023-03-02T15:39:56.246Z,22.90
2023-03-02T15:42:25.429Z,18.40
2023-03-02T15:44:54.855Z,20.80
2023-03-02T15:47:23.941Z,15.60
2023-03-02T15:49:52.843Z,48.80
2023-03-02T15:52:22.132Z,20.10
2023-03-02T15:54:52.034Z,16.50
2023-03-02T15:57:20.734Z,12.80
2023-03-02T15:59:50.142Z,21.00
2023-03-02T16:02:19.406Z,24.10
2023-03-02T16:04:48.393Z,38.90
2023-03-02T16:07:17.073Z,24.40
2023-03-02T16:09:47.072Z,13.50
2023-03-02T16:12:15.862Z,25.60
2023-03-02T16:14:45.071Z,31.70
2023-03-02T16:17:14.324Z,21.40
2023-03-02T16:19:42.905Z,32.50
2023-03-02T16:22:11.407Z,32.40
2023-03-02T16:24:41.891Z,27.00
2023-03-02T16:27:10.671Z,28.60
2023-03-02T16:29:39.218Z,28.70
2023-03-02T16:32:09.256Z,33.20
2023-03-02T16:34:38.030Z,90.60
2023-03-02T16:37:06.546Z,102.00
2023-03-02T16:39:35.044Z,89.80
2023-03-02T16:42:04.597Z,104.40
2023-03-02T16:44:33.150Z,104.80
2023-03-02T16:47:01.533Z,91.70
2023-03-02T16:49:30.497Z,61.10
2023-03-02T16:51:59.852Z,69.50
2023-03-02T16:54:28.357Z,129.70
2023-03-02T16:56:56.738Z,97.80
2023-03-02T16:59:25.277Z,88.50
2023-03-02T17:01:54.981Z,89.20
2023-03-02T17:04:25.927Z,83.80
2023-03-02T17:07:02.408Z,78.20
2023-03-02T17:09:31.913Z,60.00
2023-03-02T17:12:00.361Z,48.80
2023-03-02T17:14:28.751Z,61.30
2023-03-02T17:16:57.076Z,74.30
2023-03-02T17:19:29.984Z,68.90
2023-03-02T17:22:00.323Z,74.40
2023-03-02T17:24:30.045Z,92.30
2023-03-02T17:26:58.566Z,82.00
2023-03-02T17:29:27.392Z,73.50
2023-03-02T17:31:55.906Z,79.50
2023-03-02T17:34:28.776Z,70.40
2023-03-02T17:37:01.538Z,57.10
2023-03-02T17:39:30.500Z,43.30
2023-03-02T17:41:59.046Z,51.30
2023-03-02T17:44:27.916Z,49.70
2023-03-02T17:46:56.578Z,66.20
2023-03-02T17:49:25.504Z,61.80
2023-03-02T17:51:54.040Z,158.40
2023-03-02T17:54:22.730Z,218.80
2023-03-02T17:56:51.209Z,349.60
2023-03-02T17:59:19.880Z,435.10
2023-03-02T18:01:48.876Z,475.40
2023-03-02T18:04:18.269Z,425.40
2023-03-02T18:06:46.913Z,426.30
2023-03-02T18:09:15.705Z,515.80
2023-03-02T18:11:44.278Z,631.00
2023-03-02T18:14:19.166Z,661.30
2023-03-02T18:16:48.553Z,691.70
2023-03-02T18:19:17.077Z,549.10
2023-03-02T18:21:45.548Z,568.50
2023-03-02T18:24:14.683Z,547.00
2023-03-02T18:26:43.832Z,524.50
2023-03-02T18:29:12.877Z,482.40
2023-03-02T18:31:42.034Z,423.60
2023-03-02T18:34:11.292Z,375.80
2023-03-02T18:36:40.783Z,406.50
2023-03-02T18:39:10.110Z,362.90
2023-03-02T18:41:38.533Z,373.60
2023-03-02T18:44:07.218Z,384.90
2023-03-02T18:46:42.413Z,283.60
2023-03-02T18:49:11.580Z,331.30
2023-03-02T18:51:41.100Z,455.40
2023-03-02T18:54:10.607Z,445.80
2023-03-02T18:56:41.218Z,445.30
2023-03-02T18:59:11.356Z,365.90
2023-03-02T19:01:45.249Z,254.00
2023-03-02T19:04:15.180Z,190.60
2023-03-02T19:06:43.578Z,184.20
2023-03-02T19:09:11.820Z,216.40
2023-03-02T19:11:40.831Z,184.20
2023-03-02T19:14:09.186Z,199.30
2023-03-02T19:16:37.698Z,186.40
2023-03-02T19:19:06.165Z,194.70
2023-03-02T19:21:34.721Z,206.00
2023-03-02T19:24:03.249Z,231.50
2023-03-02T19:26:31.844Z,327.30
2023-03-02T19:29:01.103Z,240.60
2023-03-02T19:31:31.623Z,182.00
2023-03-02T19:34:00.706Z,259.20
2023-03-02T19:36:29.192Z,268.50
2023-03-02T19:39:01.301Z,250.50
2023-03-02T19:41:30.102Z,246.70
2023-03-02T19:43:58.954Z,250.80
2023-03-02T19:46:27.510Z,253.60
2023-03-02T19:48:56.017Z,247.80
2023-03-02T19:51:24.507Z,219.90
2023-03-02T19:53:53.272Z,308.80
2023-03-02T19:56:21.965Z,393.40
2023-03-02T19:58:54.430Z,327.00
2023-03-02T20:01:25.288Z,271.20
2023-03-02T20:03:56.678Z,189.70
2023-03-02T20:06:30.749Z,148.60
2023-03-02T20:09:02.744Z,144.40
2023-03-02T20:11:31.817Z,137.00
2023-03-02T20:14:03.880Z,173.00
2023-03-02T20:16:36.384Z,162.90
2023-03-02T20:19:06.387Z,162.00
2023-03-02T20:21:37.989Z,201.10
2023-03-02T20:24:07.649Z,247.50
2023-03-02T20:26:37.510Z,324.90
2023-03-02T20:29:06.616Z,388.80
2023-03-02T20:31:37.523Z,341.40
2023-03-02T20:34:09.526Z,205.90
2023-03-02T20:36:39.245Z,155.90
2023-03-02T20:39:34.287Z,325.70
2023-03-02T20:42:04.805Z,391.00
2023-03-02T20:44:34.596Z,232.10
2023-03-02T20:47:11.098Z,210.10
2023-03-02T20:49:39.752Z,209.30
2023-03-02T20:52:09.573Z,200.00
2023-03-02T20:54:42.294Z,173.70
2023-03-02T20:57:17.260Z,129.70
2023-03-02T20:59:46.603Z,112.10
2023-03-02T21:02:18.185Z,106.20
2023-03-02T21:04:48.142Z,119.60
2023-03-02T21:07:17.845Z,115.50
2023-03-02T21:09:46.369Z,153.60
2023-03-02T21:12:15.923Z,140.40
2023-03-02T21:14:45.808Z,149.10
2023-03-02T21:17:15.104Z,159.00
2023-03-02T21:19:44.856Z,99.20
2023-03-02T21:22:13.959Z,116.10
2023-03-02T21:24:43.048Z,183.30
2023-03-02T21:27:12.800Z,299.40
2023-03-02T21:29:41.450Z,432.40
2023-03-02T21:32:10.856Z,485.30
2023-03-02T21:34:40.381Z,334.00
2023-03-02T21:37:08.960Z,179.90
2023-03-02T21:39:37.802Z,163.70
2023-03-02T21:42:07.657Z,143.30
2023-03-02T21:44:36.389Z,143.50
2023-03-02T21:47:05.108Z,157.60
2023-03-02T21:49:34.301Z,176.10
2023-03-02T21:52:04.344Z,130.80
2023-03-02T21:54:33.002Z,119.10
2023-03-02T21:57:01.607Z,125.50
2023-03-02T21:59:31.599Z,130.50
2023-03-02T22:02:01.419Z,211.00
2023-03-02T22:04:30.592Z,328.80
2023-03-02T22:06:59.143Z,306.90
2023-03-02T22:09:28.606Z,244.50
2023-03-02T22:11:58.258Z,177.40
2023-03-02T22:14:28.098Z,141.10
2023-03-02T22:16:58.959Z,111.30
2023-03-02T22:19:30.347Z,92.90
2023-03-02T22:22:01.217Z,104.00
2023-03-02T22:24:32.655Z,108.00
2023-03-02T22:27:20.624Z,109.80
2023-03-02T22:29:51.119Z,90.50
2023-03-02T22:32:20.090Z,82.20
2023-03-02T22:34:52.463Z,72.20
2023-03-02T22:37:24.571Z,78.90
2023-03-02T22:40:01.275Z,77.00
2023-03-02T22:42:31.167Z,74.20
2023-03-02T22:45:23.066Z,83.20
2023-03-02T22:47:54.846Z,75.90
2023-03-02T22:50:31.182Z,78.50
2023-03-02T22:53:24.020Z,79.60
2023-03-02T22:55:59.890Z,85.10
2023-03-02T22:58:37.783Z,106.40
2023-03-02T23:01:17.411Z,148.00
2023-03-02T23:03:49.320Z,135.00
2023-03-02T23:06:33.429Z,115.70
2023-03-02T23:09:07.328Z,103.20
2023-03-02T23:14:19.920Z,120.70
2023-03-02T23:16:53.698Z,112.60
2023-03-02T23:21:52.843Z,80.10
2023-03-02T23:24:22.517Z,99.00
2023-03-02T23:26:53.583Z,98.30
2023-03-02T23:29:23.866Z,98.10
2023-03-02T23:31:53.917Z,143.10
2023-03-02T23:34:24.582Z,141.70
2023-03-02T23:36:54.596Z,120.20
2023-03-02T23:39:23.954Z,91.80
2023-03-02T23:41:53.446Z,96.20
2023-03-02T23:44:23.767Z,98.90
2023-03-02T23:46:53.619Z,93.00
2023-03-02T23:49:23.286Z,85.20
2023-03-02T23:51:52.680Z,87.50
2023-03-02T23:54:21.817Z,77.70
2023-03-02T23:56:51.583Z,95.10
2023-03-02T23:59:20.908Z,81.70
